createdAt,value
2022-08-04T00:00:45.756Z,54.03
2022-08-04T00:03:15.757Z,53.69
2022-08-04T00:05:54.065Z,53.56
2022-08-04T00:08:27.203Z,53.77
2022-08-04T00:10:56.184Z,53.51
2022-08-04T00:13:26.163Z,53.08
2022-08-04T00:15:54.764Z,53.50
2022-08-04T00:18:24.663Z,53.42
2022-08-04T00:20:52.823Z,53.39
2022-08-04T00:23:20.915Z,53.47
2022-08-04T00:25:49.053Z,53.42
2022-08-04T00:28:17.187Z,53.37
2022-08-04T00:30:46.694Z,53.26
2022-08-04T00:33:14.824Z,53.13
2022-08-04T00:35:42.997Z,53.21
2022-08-04T00:38:11.141Z,52.96
2022-08-04T00:40:44.487Z,53.08
2022-08-04T00:43:16.537Z,52.98
2022-08-04T00:46:26.081Z,53.10
2022-08-04T00:49:03.851Z,53.05
2022-08-04T00:51:38.423Z,52.87
2022-08-04T00:54:10.384Z,53.25
2022-08-04T00:57:03.889Z,53.10
2022-08-04T00:59:39.944Z,53.10
2022-08-04T01:02:12.713Z,52.71
2022-08-04T01:04:47.637Z,53.14
2022-08-04T01:07:33.509Z,52.83
2022-08-04T01:10:05.185Z,52.42
2022-08-04T01:12:55.708Z,52.91
2022-08-04T01:15:27.374Z,52.98
2022-08-04T01:18:01.238Z,52.93
2022-08-04T01:20:34.857Z,52.73
2022-08-04T01:23:38.403Z,52.22
2022-08-04T01:26:42.496Z,52.83
2022-08-04T01:29:24.210Z,52.71
2022-08-04T01:32:05.628Z,52.53
2022-08-04T01:34:37.262Z,52.80
2022-08-04T01:37:08.784Z,52.70
2022-08-04T01:39:43.384Z,52.39
2022-08-04T01:42:12.551Z,52.39
2022-08-04T01:44:42.491Z,52.09
2022-08-04T01:47:10.884Z,52.91
2022-08-04T01:49:40.681Z,52.67
2022-08-04T01:52:10.542Z,52.32
2022-08-04T01:54:40.067Z,52.05
2022-08-04T01:57:46.103Z,52.13
2022-08-04T01:59:58.254Z,52.38
2022-08-04T02:02:26.473Z,52.23
2022-08-04T02:04:54.699Z,52.31
2022-08-04T02:07:29.521Z,52.59
2022-08-04T02:10:06.852Z,52.20
2022-08-04T02:12:41.840Z,52.30
2022-08-04T02:15:19.787Z,51.98
2022-08-04T02:17:53.225Z,51.97
2022-08-04T02:20:25.103Z,52.15
2022-08-04T02:23:00.421Z,52.01
2022-08-04T02:25:29.712Z,52.00
2022-08-04T02:28:05.522Z,52.00
2022-08-04T02:30:40.817Z,52.08
2022-08-04T02:33:08.992Z,52.00
2022-08-04T02:35:37.864Z,51.98
2022-08-04T02:38:14.399Z,51.98
2022-08-04T02:40:43.064Z,52.04
2022-08-04T02:43:11.379Z,51.91
2022-08-04T02:45:40.944Z,51.95
2022-08-04T02:48:30.283Z,52.03
2022-08-04T02:50:57.187Z,51.87
2022-08-04T02:53:25.645Z,51.95
2022-08-04T02:55:56.662Z,51.67
2022-08-04T02:58:24.917Z,51.79
2022-08-04T03:00:54.566Z,51.84
2022-08-04T03:03:26.131Z,51.53
2022-08-04T03:06:19.080Z,51.69
2022-08-04T03:09:12.279Z,51.50
2022-08-04T03:12:05.113Z,51.93
2022-08-04T03:14:47.520Z,51.80
2022-08-04T03:17:52.673Z,51.62
2022-08-04T03:20:35.240Z,51.62
2022-08-04T03:23:30.826Z,51.47
2022-08-04T03:26:28.773Z,51.52
2022-08-04T03:29:26.046Z,51.50
2022-08-04T03:32:41.437Z,51.60
2022-08-04T03:35:31.853Z,51.52
2022-08-04T03:38:08.833Z,51.39
2022-08-04T03:40:41.941Z,51.46
2022-08-04T03:43:57.581Z,51.35
2022-08-04T03:46:52.737Z,51.25
2022-08-04T03:49:56.696Z,51.64
2022-08-04T03:53:02.388Z,51.19
2022-08-04T03:55:54.248Z,51.36
2022-08-04T03:58:54.938Z,51.18
2022-08-04T04:01:41.570Z,51.66
2022-08-04T04:04:50.125Z,51.60
2022-08-04T04:07:56.495Z,51.04
2022-08-04T04:10:42.194Z,51.02
2022-08-04T04:13:30.996Z,51.01
2022-08-04T04:16:15.428Z,51.10
2022-08-04T04:18:53.542Z,51.19
2022-08-04T04:21:48.120Z,51.10
2022-08-04T04:24:34.113Z,51.08
2022-08-04T04:27:10.189Z,50.86
2022-08-04T04:29:53.210Z,51.04
2022-08-04T04:32:25.567Z,51.23
2022-08-04T04:35:21.020Z,51.06
2022-08-04T04:38:18.198Z,51.19
2022-08-04T04:40:51.816Z,50.86
2022-08-04T04:43:51.634Z,50.71
2022-08-04T04:46:26.894Z,50.63
2022-08-04T04:48:58.974Z,50.83
2022-08-04T04:51:30.285Z,50.50
2022-08-04T04:54:02.239Z,50.79
2022-08-04T04:56:33.729Z,50.56
2022-08-04T04:59:03.314Z,50.90
2022-08-04T05:01:59.291Z,50.68
2022-08-04T05:04:35.735Z,51.02
2022-08-04T05:07:45.121Z,50.97
2022-08-04T05:10:20.065Z,51.13
2022-08-04T05:14:33.264Z,50.94
2022-08-04T05:15:58.106Z,51.11
2022-08-04T05:18:28.233Z,51.21
2022-08-04T05:20:58.167Z,51.92
2022-08-04T05:23:27.879Z,51.57
2022-08-04T05:25:59.936Z,51.57
2022-08-04T05:28:30.123Z,51.91
2022-08-04T05:31:01.668Z,51.71
2022-08-04T05:33:33.980Z,51.60
2022-08-04T05:36:23.554Z,51.98
2022-08-04T05:38:53.909Z,51.72
2022-08-04T05:41:22.369Z,51.68
2022-08-04T05:43:50.458Z,51.99
2022-08-04T05:46:19.946Z,52.10
2022-08-04T05:48:48.072Z,51.95
2022-08-04T05:51:16.364Z,52.08
2022-08-04T05:53:44.764Z,52.04
2022-08-04T05:56:12.978Z,52.09
2022-08-04T05:58:41.124Z,52.27
2022-08-04T06:01:10.634Z,52.22
2022-08-04T06:03:40.264Z,52.38
2022-08-04T06:06:09.407Z,52.26
2022-08-04T06:08:37.753Z,52.51
2022-08-04T06:11:07.076Z,52.30
2022-08-04T06:13:45.330Z,52.35
2022-08-04T06:16:30.011Z,52.49
2022-08-04T06:20:00.846Z,52.63
2022-08-04T06:21:55.143Z,52.69
2022-08-04T06:24:25.252Z,52.71
2022-08-04T06:26:53.383Z,52.58
2022-08-04T06:29:26.744Z,52.38
2022-08-04T06:32:28.436Z,52.53
2022-08-04T06:34:53.784Z,52.74
2022-08-04T06:37:42.438Z,52.88
2022-08-04T06:40:29.666Z,52.76
2022-08-04T06:42:59.428Z,52.67
2022-08-04T06:45:27.610Z,52.85
2022-08-04T06:47:55.705Z,52.62
2022-08-04T06:51:24.794Z,52.90
2022-08-04T06:53:13.509Z,52.92
2022-08-04T06:55:41.765Z,53.03
2022-08-04T06:58:09.927Z,53.16
2022-08-04T07:00:38.025Z,52.83
2022-08-04T07:03:07.199Z,52.90
2022-08-04T07:05:36.708Z,53.33
2022-08-04T07:08:06.056Z,53.36
2022-08-04T07:10:34.203Z,53.13
2022-08-04T07:13:02.584Z,53.49
2022-08-04T07:15:30.696Z,53.38
2022-08-04T07:18:00.308Z,53.40
2022-08-04T07:20:34.996Z,53.75
2022-08-04T07:23:05.971Z,53.57
2022-08-04T07:25:59.760Z,53.92
2022-08-04T07:28:23.471Z,53.75
2022-08-04T07:30:51.738Z,53.76
2022-08-04T07:33:19.926Z,53.95
2022-08-04T07:36:09.738Z,53.88
2022-08-04T07:38:48.673Z,54.32
2022-08-04T07:41:41.406Z,54.55
2022-08-04T07:44:11.017Z,54.43
2022-08-04T07:46:39.075Z,55.02
2022-08-04T07:49:07.203Z,54.57
2022-08-04T07:51:36.386Z,55.14
2022-08-04T07:54:06.292Z,55.11
2022-08-04T07:56:34.616Z,55.18
2022-08-04T07:59:02.870Z,54.88
2022-08-04T08:01:31.149Z,54.83
2022-08-04T08:04:00.590Z,55.05
2022-08-04T08:06:32.846Z,54.96
2022-08-04T08:09:13.746Z,55.19
2022-08-04T08:12:35.579Z,55.08
2022-08-04T08:14:32.276Z,55.22
2022-08-04T08:17:01.615Z,55.40
2022-08-04T08:19:29.973Z,55.13
2022-08-04T08:21:59.231Z,55.61
2022-08-04T08:24:28.075Z,55.10
2022-08-04T08:27:09.432Z,55.39
2022-08-04T08:29:44.106Z,55.25
2022-08-04T08:32:14.160Z,55.60
2022-08-04T08:34:42.293Z,55.51
2022-08-04T08:37:13.836Z,55.49
2022-08-04T08:39:43.966Z,55.53
2022-08-04T08:42:40.869Z,55.31
2022-08-04T08:45:19.225Z,55.66
2022-08-04T08:48:11.115Z,55.29
2022-08-04T08:51:13.056Z,55.80
2022-08-04T08:53:51.204Z,55.60
2022-08-04T08:56:31.125Z,55.46
2022-08-04T08:59:28.072Z,55.52
2022-08-04T09:02:18.067Z,55.73
2022-08-04T09:04:57.159Z,56.11
2022-08-04T09:07:44.837Z,55.85
2022-08-04T09:10:16.751Z,56.62
2022-08-04T09:12:48.147Z,56.47
2022-08-04T09:15:20.220Z,56.30
2022-08-04T09:17:49.998Z,56.86
2022-08-04T09:20:23.512Z,56.65
2022-08-04T09:22:53.113Z,57.12
2022-08-04T09:25:25.269Z,57.18
2022-08-04T09:27:54.867Z,56.84
2022-08-04T09:30:27.899Z,56.96
2022-08-04T09:32:59.581Z,56.40
2022-08-04T09:35:34.706Z,56.23
2022-08-04T09:38:07.268Z,56.14
2022-08-04T09:40:53.596Z,56.13
2022-08-04T09:44:43.072Z,55.97
2022-08-04T09:46:24.759Z,56.07
2022-08-04T09:48:54.532Z,55.98
2022-08-04T09:51:26.968Z,55.42
2022-08-04T09:54:30.135Z,55.53
2022-08-04T09:57:02.317Z,55.26
2022-08-04T09:59:33.392Z,55.41
2022-08-04T10:02:10.489Z,55.08
2022-08-04T10:04:38.613Z,55.30
2022-08-04T10:07:17.197Z,55.43
2022-08-04T10:09:49.656Z,55.18
2022-08-04T10:12:30.173Z,55.44
2022-08-04T10:15:04.557Z,55.17
2022-08-04T10:17:58.808Z,55.00
2022-08-04T10:20:45.999Z,54.87
2022-08-04T10:23:21.721Z,55.32
2022-08-04T10:26:07.075Z,54.91
2022-08-04T10:28:39.196Z,55.12
2022-08-04T10:31:10.659Z,54.84
2022-08-04T10:33:43.636Z,55.03
2022-08-04T10:36:12.160Z,54.68
2022-08-04T10:38:46.028Z,54.96
2022-08-04T10:41:14.611Z,54.99
2022-08-04T10:43:45.676Z,54.92
2022-08-04T10:46:16.014Z,55.02
2022-08-04T10:48:48.627Z,55.04
2022-08-04T10:51:23.061Z,55.21
2022-08-04T10:53:55.420Z,55.12
2022-08-04T10:56:30.201Z,54.74
2022-08-04T10:59:01.483Z,54.74
2022-08-04T11:02:00.138Z,54.98
2022-08-04T11:04:28.040Z,55.16
2022-08-04T11:06:56.873Z,55.27
2022-08-04T11:09:25.010Z,55.04
2022-08-04T11:12:00.583Z,54.96
2022-08-04T11:14:33.310Z,55.34
2022-08-04T11:17:03.018Z,55.15
2022-08-04T11:19:44.858Z,54.86
2022-08-04T11:22:20.078Z,55.30
2022-08-04T11:24:52.018Z,55.18
2022-08-04T11:27:26.999Z,55.39
2022-08-04T11:30:00.214Z,55.23
2022-08-04T11:32:36.048Z,54.94
2022-08-04T11:35:08.355Z,55.34
2022-08-04T11:37:42.692Z,55.19
2022-08-04T11:40:12.904Z,55.41
2022-08-04T11:42:42.617Z,55.45
2022-08-04T11:45:14.510Z,55.25
2022-08-04T11:47:45.728Z,55.68
2022-08-04T11:50:20.363Z,55.39
2022-08-04T11:52:48.490Z,54.99
2022-08-04T11:55:19.424Z,55.62
2022-08-04T11:57:54.416Z,55.55
2022-08-04T12:00:22.680Z,55.66
2022-08-04T12:03:10.163Z,55.40
2022-08-04T12:05:50.518Z,55.71
2022-08-04T12:08:31.025Z,55.58
2022-08-04T12:11:05.871Z,56.06
2022-08-04T12:13:38.377Z,55.87
2022-08-04T12:16:11.972Z,56.05
2022-08-04T12:18:41.595Z,55.64
2022-08-04T12:21:14.946Z,55.95
2022-08-04T12:23:44.316Z,55.47
2022-08-04T12:26:15.944Z,55.46
2022-08-04T12:29:09.154Z,55.65
2022-08-04T12:31:38.021Z,56.05
2022-08-04T12:34:09.646Z,55.70
2022-08-04T12:36:41.480Z,55.84
2022-08-04T12:39:13.161Z,55.96
2022-08-04T12:41:42.840Z,55.76
2022-08-04T12:44:36.778Z,55.93
2022-08-04T12:47:28.526Z,55.70
2022-08-04T12:50:00.254Z,55.78
2022-08-04T12:52:59.142Z,56.02
2022-08-04T12:55:21.420Z,56.11
2022-08-04T12:57:49.505Z,56.05
2022-08-04T13:00:29.285Z,56.15
2022-08-04T13:03:10.064Z,56.15
2022-08-04T13:05:40.296Z,56.05
2022-08-04T13:08:09.968Z,56.01
2022-08-04T13:10:39.468Z,56.01
2022-08-04T13:13:08.220Z,55.81
2022-08-04T13:15:47.559Z,56.11
2022-08-04T13:18:29.665Z,56.36
2022-08-04T13:20:59.393Z,56.06
2022-08-04T13:24:19.164Z,56.34
2022-08-04T13:26:42.822Z,55.92
2022-08-04T13:29:16.788Z,55.99
2022-08-04T13:31:45.221Z,56.09
2022-08-04T13:34:21.456Z,56.03
2022-08-04T13:36:49.604Z,55.97
2022-08-04T13:39:20.002Z,56.33
2022-08-04T13:41:57.029Z,56.14
2022-08-04T13:44:29.420Z,55.85
2022-08-04T13:47:00.083Z,56.19
2022-08-04T13:49:42.890Z,56.26
2022-08-04T13:52:16.409Z,56.10
2022-08-04T13:54:47.115Z,56.26
2022-08-04T13:57:16.936Z,56.12
2022-08-04T13:59:49.457Z,56.41
2022-08-04T14:02:34.984Z,55.94
2022-08-04T14:05:06.091Z,56.44
2022-08-04T14:07:47.932Z,56.48
2022-08-04T14:10:17.420Z,55.97
2022-08-04T14:12:48.865Z,56.57
2022-08-04T14:16:01.098Z,56.13
2022-08-04T14:18:23.705Z,56.50
2022-08-04T14:21:06.761Z,56.25
2022-08-04T14:23:47.573Z,56.48
2022-08-04T14:26:19.823Z,56.49
2022-08-04T14:29:25.475Z,56.43
2022-08-04T14:31:36.262Z,56.63
2022-08-04T14:34:27.328Z,56.51
2022-08-04T14:37:16.761Z,56.27
2022-08-04T14:40:08.405Z,56.91
2022-08-04T14:42:43.391Z,56.85
2022-08-04T14:45:12.227Z,57.11
2022-08-04T14:47:41.676Z,56.99
2022-08-04T14:50:21.240Z,57.17
2022-08-04T14:52:49.347Z,56.66
2022-08-04T14:55:18.847Z,56.57
2022-08-04T14:58:35.109Z,56.80
2022-08-04T15:00:37.263Z,57.23
2022-08-04T15:03:06.946Z,57.01
2022-08-04T15:06:02.796Z,56.95
2022-08-04T15:08:23.215Z,57.04
2022-08-04T15:10:59.598Z,57.14
2022-08-04T15:13:29.227Z,57.29
2022-08-04T15:16:06.248Z,56.89
2022-08-04T15:18:37.626Z,57.31
2022-08-04T15:21:07.556Z,56.73
2022-08-04T15:23:39.801Z,57.03
2022-08-04T15:26:09.860Z,56.71
2022-08-04T15:28:40.722Z,56.79
2022-08-04T15:32:05.698Z,57.40
2022-08-04T15:33:57.408Z,57.25
2022-08-04T15:36:31.180Z,56.78
2022-08-04T15:39:03.122Z,56.97
2022-08-04T15:41:35.144Z,56.69
2022-08-04T15:44:27.869Z,57.19
2022-08-04T15:47:13.335Z,57.04
2022-08-04T15:49:41.791Z,56.60
2022-08-04T15:52:12.479Z,57.17
2022-08-04T15:54:42.449Z,57.01
2022-08-04T15:57:36.624Z,56.92
2022-08-04T16:00:12.725Z,56.99
2022-08-04T16:02:47.004Z,57.30
2022-08-04T16:05:37.104Z,57.31
2022-08-04T16:08:17.906Z,56.87
2022-08-04T16:10:48.199Z,56.75
2022-08-04T16:13:19.819Z,57.03
2022-08-04T16:15:50.935Z,56.70
2022-08-04T16:18:43.693Z,56.92
2022-08-04T16:21:25.055Z,57.15
2022-08-04T16:24:15.555Z,57.22
2022-08-04T16:26:46.288Z,56.98
2022-08-04T16:29:34.229Z,56.81
2022-08-04T16:32:13.900Z,56.54
2022-08-04T16:34:49.833Z,56.70
2022-08-04T16:37:22.537Z,56.96
2022-08-04T16:39:51.981Z,56.36
2022-08-04T16:42:33.679Z,56.41
2022-08-04T16:45:02.461Z,56.15
2022-08-04T16:48:04.131Z,56.46
2022-08-04T16:50:32.521Z,56.32
2022-08-04T16:53:00.637Z,56.46
2022-08-04T16:55:29.371Z,56.51
2022-08-04T16:57:58.815Z,56.41
2022-08-04T17:00:31.421Z,56.20
2022-08-04T17:02:59.685Z,56.39
2022-08-04T17:05:38.767Z,56.06
2022-08-04T17:08:29.301Z,56.39
2022-08-04T17:10:56.501Z,56.19
2022-08-04T17:14:01.151Z,56.31
2022-08-04T17:16:18.357Z,56.03
2022-08-04T17:18:47.560Z,56.39
2022-08-04T17:21:19.900Z,55.97
2022-08-04T17:24:14.327Z,55.69
2022-08-04T17:26:39.709Z,55.31
2022-08-04T17:29:09.515Z,55.53
2022-08-04T17:31:40.592Z,55.66
2022-08-04T17:34:15.727Z,55.49
2022-08-04T17:36:45.649Z,55.86
2022-08-04T17:39:17.744Z,55.74
2022-08-04T17:41:48.738Z,55.33
2022-08-04T17:44:17.878Z,55.18
2022-08-04T17:46:48.136Z,55.05
2022-08-04T17:49:23.207Z,55.19
2022-08-04T17:52:06.651Z,55.32
2022-08-04T17:54:40.816Z,55.09
2022-08-04T17:57:15.922Z,55.48
2022-08-04T17:59:56.969Z,55.83
2022-08-04T18:02:33.540Z,55.39
2022-08-04T18:05:10.411Z,55.42
2022-08-04T18:08:41.500Z,55.38
2022-08-04T18:10:52.695Z,55.61
2022-08-04T18:13:25.433Z,55.20
2022-08-04T18:16:02.612Z,55.50
2022-08-04T18:18:31.027Z,55.40
2022-08-04T18:21:02.641Z,54.96
2022-08-04T18:23:33.632Z,55.25
2022-08-04T18:26:03.839Z,55.42
2022-08-04T18:28:33.100Z,55.39
2022-08-04T18:31:02.329Z,55.39
2022-08-04T18:33:39.918Z,55.60
2022-08-04T18:36:34.314Z,55.42
2022-08-04T18:39:12.575Z,55.27
2022-08-04T18:42:03.844Z,55.62
2022-08-04T18:44:31.467Z,55.42
2022-08-04T18:47:18.939Z,55.58
2022-08-04T18:50:40.193Z,55.36
2022-08-04T18:52:36.323Z,55.22
2022-08-04T18:55:55.280Z,55.88
2022-08-04T18:58:06.077Z,55.54
2022-08-04T19:00:45.660Z,55.02
2022-08-04T19:03:16.605Z,55.11
2022-08-04T19:05:51.780Z,55.65
2022-08-04T19:08:33.381Z,55.62
2022-08-04T19:11:36.959Z,55.18
2022-08-04T19:13:58.335Z,55.57
2022-08-04T19:16:27.581Z,55.12
2022-08-04T19:18:56.849Z,55.54
2022-08-04T19:21:59.519Z,55.79
2022-08-04T19:24:32.864Z,55.15
2022-08-04T19:27:06.944Z,55.49
2022-08-04T19:29:40.560Z,55.69
2022-08-04T19:32:14.475Z,55.60
2022-08-04T19:34:46.014Z,55.87
2022-08-04T19:37:57.816Z,55.83
2022-08-04T19:40:06.074Z,55.40
2022-08-04T19:42:35.537Z,56.00
2022-08-04T19:45:03.684Z,55.89
2022-08-04T19:48:17.513Z,55.50
2022-08-04T19:50:19.936Z,55.53
2022-08-04T19:52:52.555Z,56.15
2022-08-04T19:55:22.500Z,55.80
2022-08-04T19:57:53.103Z,55.91
2022-08-04T20:00:33.199Z,55.87
2022-08-04T20:03:02.645Z,55.95
2022-08-04T20:05:54.585Z,55.65
2022-08-04T20:08:19.176Z,55.70
2022-08-04T20:10:52.004Z,56.00
2022-08-04T20:13:21.869Z,56.16
2022-08-04T20:15:57.921Z,55.82
2022-08-04T20:21:19.676Z,56.29
2022-08-04T20:23:52.729Z,55.96
2022-08-04T20:26:20.960Z,55.91
2022-08-04T20:28:51.764Z,56.22
2022-08-04T20:31:20.797Z,56.25
2022-08-04T20:33:53.726Z,56.18
2022-08-04T20:36:23.240Z,56.00
2022-08-04T20:38:52.852Z,56.27
2022-08-04T20:41:21.319Z,55.95
2022-08-04T20:43:50.994Z,55.86
2022-08-04T20:46:29.280Z,55.66
2022-08-04T20:48:58.121Z,55.81
2022-08-04T20:51:31.520Z,56.16
2022-08-04T20:54:01.375Z,56.29
2022-08-04T20:56:31.521Z,56.15
2022-08-04T20:59:01.267Z,56.15
2022-08-04T21:01:35.836Z,56.01
2022-08-04T21:04:27.977Z,55.84
2022-08-04T21:06:58.219Z,56.52
2022-08-04T21:09:37.280Z,56.00
2022-08-04T21:12:10.909Z,56.36
2022-08-04T21:15:00.245Z,56.34
2022-08-04T21:17:58.206Z,56.16
2022-08-04T21:20:27.855Z,56.16
2022-08-04T21:23:01.632Z,55.87
2022-08-04T21:25:30.745Z,56.53
2022-08-04T21:28:04.471Z,56.42
2022-08-04T21:30:52.586Z,56.08
2022-08-04T21:33:22.155Z,56.54
2022-08-04T21:35:54.363Z,56.33
2022-08-04T21:38:27.898Z,56.26
2022-08-04T21:40:57.363Z,56.01
2022-08-04T21:43:27.484Z,56.29
2022-08-04T21:46:03.839Z,56.26
2022-08-04T21:48:33.075Z,56.26
2022-08-04T21:51:58.542Z,56.53
2022-08-04T21:54:02.998Z,56.33
2022-08-04T21:56:31.565Z,56.69
2022-08-04T21:59:00.132Z,56.47
2022-08-04T22:01:52.102Z,55.94
2022-08-04T22:04:18.797Z,56.41
2022-08-04T22:06:47.611Z,55.92
2022-08-04T22:09:21.932Z,55.95
2022-08-04T22:11:51.523Z,56.13
2022-08-04T22:14:29.389Z,55.97
2022-08-04T22:17:03.998Z,56.55
2022-08-04T22:22:25.946Z,55.95
2022-08-04T22:24:55.481Z,55.89
2022-08-04T22:27:47.627Z,55.86
2022-08-04T22:30:23.928Z,55.96
2022-08-04T22:32:53.536Z,55.97
2022-08-04T22:35:36.106Z,56.37
2022-08-04T22:38:20.562Z,56.43
2022-08-04T22:40:57.636Z,56.19
2022-08-04T22:43:31.780Z,55.99
2022-08-04T22:46:03.936Z,55.96
2022-08-04T22:48:34.064Z,55.78
2022-08-04T22:51:02.829Z,55.82
2022-08-04T22:53:31.736Z,55.84
2022-08-04T22:56:09.327Z,55.54
2022-08-04T22:58:40.807Z,55.75
2022-08-04T23:01:15.257Z,55.81
2022-08-04T23:03:50.988Z,55.61
2022-08-04T23:06:24.636Z,55.88
2022-08-04T23:08:52.822Z,55.26
2022-08-04T23:11:21.849Z,55.50
2022-08-04T23:13:50.488Z,55.52
2022-08-04T23:16:19.125Z,55.38
2022-08-04T23:18:49.440Z,55.45
2022-08-04T23:21:24.304Z,55.88
2022-08-04T23:24:00.848Z,55.21
2022-08-04T23:26:30.925Z,55.35
2022-08-04T23:28:59.152Z,55.37
2022-08-04T23:31:41.597Z,55.35
2022-08-04T23:34:18.691Z,55.17
2022-08-04T23:36:47.480Z,55.45
2022-08-04T23:39:15.930Z,55.11
2022-08-04T23:41:53.986Z,55.34
2022-08-04T23:44:26.819Z,55.31
2022-08-04T23:47:00.031Z,55.24
2022-08-04T23:49:44.515Z,54.91
2022-08-04T23:52:23.224Z,55.04
2022-08-04T23:54:58.390Z,55.34
2022-08-04T23:57:30.787Z,54.91
